Alconbury RAF, United Kingdom

1:24 PM BST on October 23, 2014 (GMT +0100)
Cambridgeshire | Change Station
CLOSE
Current Station
Personal Weather Station
Location: St Ives, CAMBRIDGESHIRE
Elevation: 95 ft
Nearby Weather Stations

Elev 95 ft 52.34 °N, 0.09 °W | Updated 16 minutes ago

Overcast
Overcast
61.0 °F
Feels Like 61.0 °F
N
3.6
Wind Variable Wind from West
Gusts 3.6 mph

Today
High -- | Low -- °F
--% Chance of Precip.
Yesterday
High -- | Low -- °F
Precip. -- in
7:40 AM 5:49 PM
Waning Crescent, 0% visible
Pressure 30.06 in
Visibility 6.2 miles
Clouds Overcast 2200 ft
Dew Point 49 °F
Humidity 64%
Rainfall 0.00 in
Snow Depth Not available.
UV 1 out of 12
Pollen Not available.
Air Quality Not available.
Flu Activity Not available.
METAR EGSC 231220Z 21010KT 160V260 9999 OVC022 15/11 Q1018

More Conditions Fewer Conditions

Pressure 30.06 in
Visibility 6.2 miles
Clouds Overcast 2200 ft
Dew Point 49 °F
Humidity 64%
Rainfall 0.00 in
Snow Depth Not available.
UV 1 out of 12
Pollen Not available.
Air Quality Not available.
Flu Activity Not available.
METAR EGSC 231220Z 21010KT 160V260 9999 OVC022 15/11 Q1018

More Conditions Fewer Conditions

10-Day Weather Forecast

Almanac

Astronomy

Oct. 23, 2014 Rise Set
Actual Time 7:40 AM BST 5:49 PM BST
Civil Twilight 7:05 AM BST 6:24 PM BST
Nautical Twilight 6:25 AM BST 7:04 PM BST
Astronomical Twilight 5:46 AM BST 7:43 PM BST
Moon 7:01 AM BST 5:43 PM BST
Length of Visible Light 11h 19m
Length of Day
10h 09m
Tomorrow will be 3m 52s shorter.
Waning Crescent, 0% of the Moon is Illuminated
Today
Waning Crescent
Oct 23
New
Oct 30
First Quarter
Nov 6
Full
Nov 14
Last Quarter

Yesterday's Extremes

Country Highs Country Lows

Community

WunderPhotos

Upload Photos

1,764,211 photos uploaded!

WunderBlogs® & News

Nearby

Snow Depth

Not available.

Earthquake Activity

City Distance Mag. Time & Date
No recent earthquake activity has been reported nearby.
Minimum magnitude displayed is 2.5.

Coastal Water Temperatures

Place Temperature
No Stations Reporting

Nearby Weather Stations